Time;durP1;ratioP1;P1;durP2;ratioP2;P2;SDS_P1;SDS_P2;PMS_P1;PMS_P2;Temp;Humidity;BMP_temperature;BMP_pressure;BME280_temperature;BME280_humidity;BME280_pressure;Samples;Min_cycle;Max_cycle;Signal;HPM_P1;HPM_P2
2022/06/26 00:00:31;;;;;;;23.95;18.27;;;;;;;17.27;95.37;101069.94;5012280;28;20030;-58
2022/06/26 00:02:56;;;;;;;23.60;17.20;;;;;;;17.25;95.70;101072.25;5012756;28;20429;-58
2022/06/26 00:05:22;;;;;;;24.00;17.85;;;;;;;17.22;95.92;101079.34;5012885;28;20030;-59
2022/06/26 00:07:47;;;;;;;24.50;18.77;;;;;;;17.21;96.65;101086.09;5013118;28;20417;-60
2022/06/26 00:10:12;;;;;;;25.75;19.02;;;;;;;17.21;96.88;101088.91;5012922;28;20074;-58
2022/06/26 00:12:38;;;;;;;25.88;18.45;;;;;;;17.21;97.12;101077.72;5012849;28;20480;-60
2022/06/26 00:15:04;;;;;;;22.88;17.55;;;;;;;17.18;96.73;101077.59;5012374;28;20165;-59
2022/06/26 00:17:29;;;;;;;24.10;17.67;;;;;;;17.14;97.69;101086.66;5012694;28;20033;-58
2022/06/26 00:19:54;;;;;;;24.33;18.70;;;;;;;17.09;97.29;101091.69;5010751;28;20040;-57
2022/06/26 00:22:20;;;;;;;24.48;18.80;;;;;;;17.05;97.29;101079.53;5011314;28;20092;-60
2022/06/26 00:24:46;;;;;;;25.67;18.67;;;;;;;16.98;97.80;101091.28;5013064;28;20074;-59
2022/06/26 00:27:12;;;;;;;25.23;19.30;;;;;;;16.94;98.60;101088.38;5012721;28;20054;-60
2022/06/26 00:29:37;;;;;;;26.60;19.70;;;;;;;16.89;98.76;101084.94;5012465;28;20025;-59
2022/06/26 00:32:04;;;;;;;24.40;18.95;;;;;;;16.89;98.88;101098.91;5012232;28;20044;-60
2022/06/26 00:34:30;;;;;;;24.00;18.98;;;;;;;16.86;99.31;101097.63;5012222;28;20081;-58
2022/06/26 00:36:55;;;;;;;25.88;19.55;;;;;;;16.82;99.41;101105.03;5011936;28;20034;-59
2022/06/26 00:39:20;;;;;;;25.98;19.60;;;;;;;16.81;99.69;101107.03;5011892;28;20405;-60
2022/06/26 00:41:46;;;;;;;26.13;19.58;;;;;;;16.77;99.54;101114.44;5012542;28;20036;-59
2022/06/26 00:44:16;;;;;;;25.95;19.80;;;;;;;16.75;99.85;101114.00;5011729;28;20040;-55
2022/06/26 00:46:43;;;;;;;25.95;19.85;;;;;;;16.73;100.00;101121.06;5012187;28;20056;-59
2022/06/26 00:49:08;;;;;;;26.83;19.92;;;;;;;16.69;100.00;101118.13;5012191;28;20045;-59
2022/06/26 00:51:37;;;;;;;25.77;19.00;;;;;;;16.68;100.00;101116.50;5011658;28;20033;-60
2022/06/26 00:54:03;;;;;;;25.67;19.83;;;;;;;16.68;100.00;101119.28;5011851;28;20099;-59
2022/06/26 00:56:28;;;;;;;25.35;19.98;;;;;;;16.66;100.00;101132.81;5012157;28;20381;-60
2022/06/26 00:58:54;;;;;;;25.48;19.95;;;;;;;16.65;100.00;101140.34;5012281;28;20060;-59
2022/06/26 01:01:19;;;;;;;25.63;19.55;;;;;;;16.64;100.00;101141.50;5010814;28;20048;-58
2022/06/26 01:03:45;;;;;;;24.88;20.10;;;;;;;16.63;100.00;101136.28;5012050;28;20029;-59
2022/06/26 01:06:10;;;;;;;26.17;20.23;;;;;;;16.62;100.00;101132.69;5010055;28;20141;-59
2022/06/26 01:08:36;;;;;;;25.50;20.27;;;;;;;16.59;100.00;101138.94;5011738;28;20083;-58
2022/06/26 01:11:17;;;;;;;26.30;19.80;;;;;;;16.58;100.00;101142.06;5011420;28;20045;-59
2022/06/26 01:13:47;;;;;;;25.30;20.17;;;;;;;16.55;100.00;101146.34;5012025;28;20041;-58
2022/06/26 01:16:14;;;;;;;26.20;21.20;;;;;;;16.56;100.00;101141.59;5011684;28;20032;-59
2022/06/26 01:18:40;;;;;;;27.75;20.52;;;;;;;16.59;100.00;101141.72;5011914;28;20063;-59
2022/06/26 01:21:06;;;;;;;27.10;20.15;;;;;;;16.61;100.00;101141.38;5010125;28;20479;-60
2022/06/26 01:23:31;;;;;;;25.83;19.98;;;;;;;16.62;100.00;101146.63;5011303;28;20097;-58
2022/06/26 01:25:57;;;;;;;26.80;20.67;;;;;;;16.60;100.00;101142.53;5011664;28;20048;-57
2022/06/26 01:28:22;;;;;;;25.92;20.27;;;;;;;16.60;100.00;101150.91;5010952;28;20032;-59
2022/06/26 01:30:47;;;;;;;27.08;21.15;;;;;;;16.61;100.00;101160.94;5011309;28;20105;-58
2022/06/26 01:33:13;;;;;;;28.40;21.45;;;;;;;16.61;100.00;101153.38;5011063;28;20062;-59
2022/06/26 01:35:38;;;;;;;26.92;21.33;;;;;;;16.59;100.00;101158.47;5010564;28;20064;-57
2022/06/26 01:38:23;;;;;;;27.17;20.42;;;;;;;16.62;100.00;101157.81;5010903;28;20064;-59
2022/06/26 01:40:51;;;;;;;29.48;21.90;;;;;;;16.57;100.00;101159.97;5010908;28;20155;-58
2022/06/26 01:43:19;;;;;;;26.98;20.70;;;;;;;16.57;100.00;101151.59;5011598;28;20109;-58
2022/06/26 01:45:46;;;;;;;26.60;20.27;;;;;;;16.54;100.00;101144.69;5010835;28;20099;-58
2022/06/26 01:48:12;;;;;;;29.02;21.00;;;;;;;16.58;100.00;101156.84;5010330;28;20101;-58
2022/06/26 01:50:37;;;;;;;27.20;20.67;;;;;;;16.56;100.00;101147.19;5011001;28;20037;-59
2022/06/26 01:53:03;;;;;;;27.33;19.55;;;;;;;16.57;100.00;101146.81;5009080;28;20030;-59
2022/06/26 01:55:28;;;;;;;27.70;21.30;;;;;;;16.56;100.00;101152.75;5008937;28;20354;-59
2022/06/26 01:57:54;;;;;;;28.67;21.70;;;;;;;16.59;100.00;101147.31;5009243;28;20127;-58
2022/06/26 02:00:20;;;;;;;27.70;21.52;;;;;;;16.60;100.00;101151.75;5011047;28;20030;-59
2022/06/26 02:02:45;;;;;;;28.67;22.00;;;;;;;16.61;100.00;101146.97;5009933;28;20105;-57
2022/06/26 02:05:11;;;;;;;29.77;22.77;;;;;;;16.60;99.98;101143.38;5011230;28;20082;-58
2022/06/26 02:07:37;;;;;;;30.02;22.90;;;;;;;16.58;99.91;101151.25;5009473;28;20026;-57
2022/06/26 02:15:30;;;;;;;28.20;22.23;;;;;;;16.48;99.34;101127.31;5011177;28;20377;-59
2022/06/26 02:17:56;;;;;;;29.48;22.67;;;;;;;16.43;99.45;101135.91;5010864;28;20025;-57
2022/06/26 02:20:21;;;;;;;30.42;23.35;;;;;;;16.35;99.29;101126.44;5010438;28;20029;-58
2022/06/26 02:22:46;;;;;;;31.63;23.67;;;;;;;16.31;99.40;101125.50;5010618;28;20022;-59
2022/06/26 02:25:12;;;;;;;28.83;22.73;;;;;;;16.33;99.88;101120.41;5010527;28;20030;-58
2022/06/26 02:27:37;;;;;;;29.48;22.40;;;;;;;16.29;99.54;101116.63;5009896;28;20041;-59
2022/06/26 02:30:03;;;;;;;31.83;23.92;;;;;;;16.30;100.00;101121.06;5010196;28;20030;-59
2022/06/26 02:32:28;;;;;;;30.35;23.73;;;;;;;16.28;100.00;101120.59;5010216;28;20026;-58
2022/06/26 02:34:53;;;;;;;32.75;24.88;;;;;;;16.17;99.79;101122.13;5010388;28;20032;-59
2022/06/26 02:37:19;;;;;;;31.35;24.40;;;;;;;16.22;100.00;101125.53;5009811;28;20034;-60
2022/06/26 02:39:44;;;;;;;31.52;24.10;;;;;;;16.24;99.93;101118.81;5009863;28;20049;-60
2022/06/26 02:42:09;;;;;;;31.60;24.70;;;;;;;16.25;100.00;101139.97;5008963;28;20362;-59
2022/06/26 02:44:35;;;;;;;32.47;23.85;;;;;;;16.20;99.63;101144.59;5010386;28;20046;-58
2022/06/26 02:47:00;;;;;;;31.95;24.50;;;;;;;16.21;100.00;101154.59;5010408;28;20357;-60
2022/06/26 02:49:26;;;;;;;31.63;24.73;;;;;;;16.17;100.00;101155.63;5010255;28;20092;-58
2022/06/26 02:51:52;;;;;;;31.13;23.10;;;;;;;16.16;100.00;101163.19;5010287;28;20069;-60
2022/06/26 02:54:17;;;;;;;30.83;23.45;;;;;;;16.17;99.64;101156.44;5010443;28;20030;-59
2022/06/26 02:56:42;;;;;;;32.67;24.35;;;;;;;16.16;99.47;101154.81;5009878;28;20110;-60
2022/06/26 02:59:07;;;;;;;31.75;23.10;;;;;;;16.18;99.78;101163.66;5011545;28;20032;-59
2022/06/26 03:01:33;;;;;;;32.55;23.15;;;;;;;16.21;99.65;101162.97;5014002;28;20070;-58
2022/06/26 03:03:58;;;;;;;30.17;23.33;;;;;;;16.21;99.61;101171.34;5014168;28;20038;-58
2022/06/26 03:06:23;;;;;;;31.58;23.15;;;;;;;16.20;99.57;101172.50;5014211;28;20184;-59
2022/06/26 03:08:49;;;;;;;32.45;24.63;;;;;;;16.17;99.08;101180.72;5012540;28;20033;-59
2022/06/26 03:11:14;;;;;;;31.08;23.10;;;;;;;16.13;98.66;101188.16;5011885;28;20026;-59
2022/06/26 03:13:39;;;;;;;29.55;21.98;;;;;;;16.06;98.22;101183.91;5013101;28;20030;-58
2022/06/26 03:16:05;;;;;;;29.52;21.25;;;;;;;16.01;98.01;101178.53;5011708;28;20033;-58
2022/06/26 03:18:30;;;;;;;28.42;20.08;;;;;;;15.90;96.90;101177.25;5013530;28;20386;-58
2022/06/26 03:20:56;;;;;;;26.95;20.00;;;;;;;15.82;96.61;101175.28;5013250;28;20354;-58
2022/06/26 03:24:00;;;;;;;26.10;18.63;;;;;;;15.79;97.51;101179.56;5013134;28;20091;-58
2022/06/26 03:26:06;;;;;;;28.08;19.08;;;;;;;15.71;96.72;101191.56;5013215;28;20038;-60
2022/06/26 03:28:31;;;;;;;27.23;19.25;;;;;;;15.67;96.76;101194.22;5012283;28;20358;-59
2022/06/26 03:30:57;;;;;;;25.23;18.90;;;;;;;15.62;96.93;101197.16;5013447;28;20026;-61
2022/06/26 03:33:22;;;;;;;25.63;18.52;;;;;;;15.55;96.75;101197.66;5011852;28;20136;-59
2022/06/26 03:35:47;;;;;;;27.30;18.65;;;;;;;15.52;96.81;101189.16;5013262;28;20026;-58
2022/06/26 03:38:14;;;;;;;26.13;18.45;;;;;;;15.51;97.24;101207.88;5012621;28;20165;-58
2022/06/26 03:40:39;;;;;;;26.48;18.35;;;;;;;15.39;97.50;101208.56;5011465;28;20053;-58
2022/06/26 03:43:04;;;;;;;29.73;20.50;;;;;;;15.33;97.99;101218.22;5012788;28;20022;-59
2022/06/26 03:45:30;;;;;;;26.35;18.55;;;;;;;15.30;98.11;101224.47;5013183;28;20030;-59
2022/06/26 03:47:55;;;;;;;28.58;17.88;;;;;;;15.29;97.77;101236.75;5013359;28;20052;-59
2022/06/26 03:50:20;;;;;;;26.73;17.98;;;;;;;15.21;98.32;101234.81;5013359;28;20026;-58
2022/06/26 03:52:46;;;;;;;26.73;17.48;;;;;;;15.20;98.40;101233.16;5011463;28;20026;-58
2022/06/26 03:55:11;;;;;;;24.75;17.40;;;;;;;15.21;98.30;101234.81;5012882;28;20045;-59
2022/06/26 03:57:36;;;;;;;25.67;17.60;;;;;;;15.15;98.78;101242.50;5012849;28;20132;-57
2022/06/26 04:00:03;;;;;;;25.98;17.48;;;;;;;15.15;98.73;101244.44;5012267;28;20037;-59
2022/06/26 04:02:28;;;;;;;26.20;17.20;;;;;;;15.15;98.59;101241.66;5012938;28;20056;-59
2022/06/26 04:04:53;;;;;;;26.85;17.05;;;;;;;15.13;98.35;101233.66;5013127;28;20041;-59
2022/06/26 04:07:20;;;;;;;25.10;16.65;;;;;;;15.15;98.35;101248.06;5012664;28;20026;-58
2022/06/26 04:09:45;;;;;;;26.13;17.45;;;;;;;15.18;98.59;101247.41;5010861;28;20026;-57
2022/06/26 04:12:10;;;;;;;26.15;17.50;;;;;;;15.17;98.37;101242.16;5012681;28;20132;-59
2022/06/26 04:14:36;;;;;;;27.10;17.00;;;;;;;15.16;98.46;101240.53;5012706;28;20034;-59
2022/06/26 04:17:01;;;;;;;26.50;17.30;;;;;;;15.13;98.59;101228.88;5012392;28;20072;-58
2022/06/26 04:19:26;;;;;;;27.65;17.27;;;;;;;15.10;98.65;101235.13;5010944;28;20478;-59
2022/06/26 04:21:52;;;;;;;27.00;17.75;;;;;;;15.08;98.60;101236.56;5012856;28;20474;-59
2022/06/26 04:24:17;;;;;;;25.95;17.27;;;;;;;15.04;99.08;101230.84;5012415;28;20120;-59
2022/06/26 04:26:42;;;;;;;26.98;18.23;;;;;;;15.00;99.02;101245.75;5012061;28;20381;-58
2022/06/26 04:29:08;;;;;;;25.77;17.20;;;;;;;14.99;99.47;101250.53;5012629;28;20045;-59
2022/06/26 04:31:33;;;;;;;25.92;17.48;;;;;;;15.00;99.50;101245.75;5011988;28;20132;-59
2022/06/26 04:33:58;;;;;;;25.80;16.90;;;;;;;15.03;99.31;101245.91;5009625;28;20026;-57
2022/06/26 04:36:24;;;;;;;25.77;16.70;;;;;;;15.05;99.34;101262.31;5011938;28;20052;-58
2022/06/26 04:38:49;;;;;;;26.77;17.02;;;;;;;15.11;99.10;101272.16;5011732;28;20164;-59
2022/06/26 04:41:34;;;;;;;27.50;16.83;;;;;;;15.13;98.93;101272.66;5011874;28;20026;-60
2022/06/26 04:44:01;;;;;;;26.30;16.58;;;;;;;15.18;98.70;101275.28;5012347;28;20025;-58
2022/06/26 04:46:26;;;;;;;25.45;16.42;;;;;;;15.16;98.56;101279.53;5012116;28;20022;-59
2022/06/26 04:48:52;;;;;;;25.73;15.88;;;;;;;15.18;98.26;101289.19;5011650;28;20128;-57
2022/06/26 04:51:17;;;;;;;24.60;16.25;;;;;;;15.16;98.26;101290.69;5011650;28;20052;-58
2022/06/26 04:53:43;;;;;;;26.10;16.10;;;;;;;15.15;97.57;101289.88;5010663;28;20426;-57
2022/06/26 04:56:08;;;;;;;24.45;15.77;;;;;;;15.15;98.08;101291.81;5011692;28;20041;-57
2022/06/26 04:58:33;;;;;;;24.10;15.20;;;;;;;15.19;98.51;101296.41;5010310;28;20201;-58
2022/06/26 05:00:59;;;;;;;23.88;15.45;;;;;;;15.22;97.70;101298.56;5011207;28;20037;-57
2022/06/26 05:03:24;;;;;;;25.60;15.13;;;;;;;15.32;97.78;101291.84;5009842;28;20049;-58
2022/06/26 05:05:49;;;;;;;24.33;14.18;;;;;;;15.32;96.84;101300.19;5011715;28;20029;-58
2022/06/26 05:08:14;;;;;;;22.88;13.88;;;;;;;15.38;96.97;101298.06;5011433;28;20033;-58
2022/06/26 05:10:40;;;;;;;25.05;14.43;;;;;;;15.43;96.64;101301.50;5011138;28;20462;-58
2022/06/26 05:13:05;;;;;;;24.20;14.57;;;;;;;15.48;96.18;101299.72;5011274;28;20034;-57
2022/06/26 05:15:30;;;;;;;24.10;14.48;;;;;;;15.65;96.08;101298.88;5011322;28;20021;-58
2022/06/26 05:17:56;;;;;;;25.88;14.40;;;;;;;15.76;95.37;101311.31;5010833;28;20132;-58
2022/06/26 05:20:21;;;;;;;24.27;14.32;;;;;;;15.89;94.70;101302.00;5010871;28;20030;-57
2022/06/26 05:22:46;;;;;;;23.33;14.20;;;;;;;15.96;93.55;101297.88;5010632;28;20362;-57
2022/06/26 05:25:12;;;;;;;23.85;14.80;;;;;;;15.92;93.62;101302.50;5009825;28;20026;-57
2022/06/26 05:27:37;;;;;;;24.17;14.38;;;;;;;15.89;93.95;101301.16;5010951;28;20335;-57
2022/06/26 05:30:04;;;;;;;23.27;13.88;;;;;;;15.86;93.16;101302.66;5010919;28;20049;-59
2022/06/26 05:32:29;;;;;;;25.20;14.45;;;;;;;15.92;93.80;101302.50;5010109;28;20042;-58
2022/06/26 05:34:54;;;;;;;23.35;14.43;;;;;;;15.91;94.10;101296.06;5011317;28;20022;-58
2022/06/26 05:37:20;;;;;;;24.60;13.77;;;;;;;15.96;93.82;101297.88;5010684;28;20049;-57
2022/06/26 05:39:45;;;;;;;23.75;13.32;;;;;;;16.01;91.98;101303.28;5010395;28;20180;-56
2022/06/26 05:42:10;;;;;;;23.52;14.20;;;;;;;16.09;92.38;101299.66;5010991;28;20446;-58
2022/06/26 05:44:35;;;;;;;22.45;13.63;;;;;;;16.10;91.16;101298.50;5011096;28;20029;-58
2022/06/26 05:47:01;;;;;;;23.08;14.05;;;;;;;16.06;90.44;101312.28;5010975;28;20070;-57
2022/06/26 05:49:27;;;;;;;23.55;13.82;;;;;;;16.10;90.69;101320.84;5011191;28;20468;-59
2022/06/26 05:51:53;;;;;;;23.30;13.00;;;;;;;16.19;90.62;101324.41;5010753;28;20151;-58
2022/06/26 05:54:19;;;;;;;22.92;13.85;;;;;;;16.20;90.32;101328.00;5010417;28;20113;-59
2022/06/26 05:56:44;;;;;;;25.00;13.88;;;;;;;16.17;89.98;101323.09;5010754;28;20029;-59
2022/06/26 05:59:10;;;;;;;24.67;14.27;;;;;;;16.20;90.94;101344.75;5010837;28;20092;-58
2022/06/26 06:01:35;;;;;;;21.27;13.15;;;;;;;16.30;89.88;101344.41;5009091;28;20052;-58
2022/06/26 06:04:00;;;;;;;23.05;13.40;;;;;;;16.45;89.80;101351.41;5010583;28;20037;-56
2022/06/26 06:06:26;;;;;;;25.15;13.93;;;;;;;16.62;89.21;101364.50;5013057;28;20022;-58
2022/06/26 06:08:51;;;;;;;24.15;13.82;;;;;;;16.75;87.79;101354.25;5027947;28;20033;-58
2022/06/26 06:11:16;;;;;;;22.63;13.98;;;;;;;16.82;87.27;101350.91;5045792;28;20021;-57
2022/06/26 06:13:42;;;;;;;23.13;13.45;;;;;;;16.91;86.72;101360.06;5030500;28;20037;-58
2022/06/26 06:16:07;;;;;;;23.23;13.15;;;;;;;17.02;85.42;101360.56;5030489;28;20104;-58
2022/06/26 06:18:33;;;;;;;23.05;13.00;;;;;;;17.14;84.80;101362.59;5030194;28;20429;-58
2022/06/26 06:20:58;;;;;;;21.50;12.27;;;;;;;17.20;83.45;101357.63;5030241;28;20049;-58
2022/06/26 06:23:24;;;;;;;23.63;13.40;;;;;;;17.25;82.98;101357.44;5030224;28;20048;-59
2022/06/26 06:25:49;;;;;;;23.88;13.15;;;;;;;17.36;83.67;101364.25;5030459;28;20059;-58
2022/06/26 06:28:14;;;;;;;22.77;13.38;;;;;;;17.46;83.67;101355.47;5030340;28;20334;-58
2022/06/26 06:30:40;;;;;;;21.83;12.88;;;;;;;17.59;83.29;101359.16;5030208;28;20365;-58
2022/06/26 06:33:05;;;;;;;23.48;12.50;;;;;;;17.66;82.45;101360.59;5029877;28;20377;-59
2022/06/26 06:35:31;;;;;;;21.35;12.80;;;;;;;17.70;82.41;101353.13;5029944;28;20043;-60
2022/06/26 06:37:56;;;;;;;24.27;12.82;;;;;;;17.75;81.88;101350.94;5029755;28;20087;-58
2022/06/26 06:40:22;;;;;;;21.10;12.30;;;;;;;17.89;80.83;101352.66;5029700;28;20083;-59
2022/06/26 06:42:47;;;;;;;21.70;12.55;;;;;;;17.99;82.12;101355.06;5030423;28;20037;-59
2022/06/26 06:45:13;;;;;;;21.98;12.27;;;;;;;18.07;79.33;101368.16;5030354;28;20026;-59
2022/06/26 06:47:38;;;;;;;23.40;11.80;;;;;;;18.26;80.42;101378.00;5029770;28;20497;-58
2022/06/26 06:50:04;;;;;;;21.83;11.70;;;;;;;18.40;80.32;101372.88;5030057;28;20428;-58
2022/06/26 06:52:30;;;;;;;23.08;11.98;;;;;;;18.40;76.92;101375.69;5029806;28;20106;-57
2022/06/26 06:54:55;;;;;;;21.20;11.90;;;;;;;18.40;77.47;101389.69;5030122;28;20033;-60
2022/06/26 06:57:20;;;;;;;22.55;12.40;;;;;;;18.41;78.47;101390.53;5029648;28;20036;-58
2022/06/26 06:59:46;;;;;;;23.33;12.15;;;;;;;18.40;78.70;101405.69;5029841;28;20104;-58
2022/06/26 07:02:11;;;;;;;21.80;12.43;;;;;;;18.45;76.85;101410.25;5019822;28;20033;-58
2022/06/26 07:04:36;;;;;;;22.27;11.38;;;;;;;18.43;76.83;101413.38;5020018;28;20062;-59
2022/06/26 07:07:02;;;;;;;21.45;12.13;;;;;;;18.45;77.43;101416.66;5028641;28;20033;-58
2022/06/26 07:09:28;;;;;;;21.75;12.15;;;;;;;18.42;76.48;101425.75;5028256;28;20554;-58
2022/06/26 07:11:53;;;;;;;21.70;12.55;;;;;;;18.48;76.73;101432.78;5029397;28;20116;-59
2022/06/26 07:14:18;;;;;;;21.65;11.63;;;;;;;18.52;75.70;101436.50;5029567;28;20026;-58
2022/06/26 07:16:44;;;;;;;22.40;12.70;;;;;;;18.52;76.28;101436.50;5029313;28;20108;-59
2022/06/26 07:19:09;;;;;;;21.13;11.88;;;;;;;18.68;76.56;101439.47;5029620;28;20021;-58
2022/06/26 07:21:35;;;;;;;21.50;11.60;;;;;;;18.77;75.59;101438.53;5029641;28;20111;-58
2022/06/26 07:24:00;;;;;;;21.42;11.70;;;;;;;18.78;74.87;101455.03;5030022;28;20115;-58
2022/06/26 07:26:25;;;;;;;22.30;11.98;;;;;;;18.75;74.65;101450.13;5029418;28;20017;-57
2022/06/26 07:28:51;;;;;;;20.70;12.15;;;;;;;18.83;75.16;101448.38;5029823;28;20445;-59
2022/06/26 07:31:16;;;;;;;21.85;11.75;;;;;;;18.85;74.88;101430.03;5029737;28;20030;-57
2022/06/26 07:36:25;;;;;;;20.85;11.75;;;;;;;19.14;73.78;101425.41;5029719;28;20456;-58
2022/06/26 07:38:50;;;;;;;21.30;11.80;;;;;;;19.18;73.87;101426.34;5028886;28;20080;-58
2022/06/26 07:41:16;;;;;;;21.67;11.23;;;;;;;19.15;72.70;101437.44;5029364;28;20026;-57
2022/06/26 07:43:41;;;;;;;20.02;11.10;;;;;;;19.16;73.10;101431.50;5028980;28;20091;-58
2022/06/26 07:46:07;;;;;;;22.50;10.93;;;;;;;19.11;72.54;101454.16;5030878;28;20093;-60
2022/06/26 07:48:33;;;;;;;20.23;10.45;;;;;;;19.03;73.00;101455.09;5031806;28;20039;-58
2022/06/26 07:50:58;;;;;;;19.58;10.45;;;;;;;18.99;72.65;101449.34;5032800;28;20053;-56
2022/06/26 07:53:24;;;;;;;20.00;10.38;;;;;;;18.95;72.36;101436.38;5032264;28;20122;-59
2022/06/26 07:55:49;;;;;;;22.05;11.00;;;;;;;19.00;71.76;101436.97;5011444;28;20246;-57
2022/06/26 07:58:14;;;;;;;19.20;10.40;;;;;;;19.11;72.24;101447.75;5026347;28;20048;-58
2022/06/26 08:00:40;;;;;;;20.58;10.13;;;;;;;19.21;72.96;101455.69;5011420;28;20444;-59
2022/06/26 08:03:08;;;;;;;19.58;10.73;;;;;;;19.29;71.67;101448.28;5009199;28;20089;-55
2022/06/26 08:05:34;;;;;;;20.60;10.70;;;;;;;19.40;71.71;101448.66;5010784;28;20026;-58
2022/06/26 08:07:59;;;;;;;21.60;10.70;;;;;;;19.38;71.00;101465.03;5011013;28;20054;-57
2022/06/26 08:10:24;;;;;;;20.25;10.60;;;;;;;19.33;70.63;101446.44;5011207;28;20037;-58
2022/06/26 08:12:50;;;;;;;20.52;10.77;;;;;;;19.36;71.04;101461.75;5009565;28;20427;-56
2022/06/26 08:15:15;;;;;;;19.92;10.40;;;;;;;19.38;70.44;101465.81;5009719;28;20565;-58
2022/06/26 08:17:40;;;;;;;18.60;10.60;;;;;;;19.30;70.52;101472.38;5010262;28;20096;-58
2022/06/26 08:20:06;;;;;;;20.50;11.23;;;;;;;19.31;70.61;101476.81;5010324;28;20056;-56
2022/06/26 08:22:31;;;;;;;20.70;11.05;;;;;;;19.25;70.88;101473.44;5010175;28;20061;-58
2022/06/26 08:24:57;;;;;;;19.85;10.57;;;;;;;19.22;71.01;101471.34;5011212;28;20049;-57
2022/06/26 08:27:22;;;;;;;21.35;10.80;;;;;;;19.14;71.52;101475.91;5010775;28;20037;-58
2022/06/26 08:29:47;;;;;;;19.13;10.13;;;;;;;19.01;70.18;101477.03;5010893;28;20022;-58
2022/06/26 08:32:13;;;;;;;19.70;10.80;;;;;;;19.01;71.69;101469.47;5010682;28;20026;-57
2022/06/26 08:34:38;;;;;;;19.45;10.60;;;;;;;19.01;70.88;101477.03;5010311;28;20109;-57
2022/06/26 08:37:03;;;;;;;19.48;10.80;;;;;;;19.03;71.07;101471.91;5010461;28;20054;-58
2022/06/26 08:39:30;;;;;;;19.42;9.93;;;;;;;19.06;70.06;101474.03;5009907;28;20519;-58
2022/06/26 08:41:56;;;;;;;17.48;9.75;;;;;;;19.05;70.15;101460.34;5010469;28;20034;-58
2022/06/26 08:44:23;;;;;;;19.45;10.20;;;;;;;19.07;70.47;101469.22;5010400;28;20060;-58
2022/06/26 08:46:49;;;;;;;20.15;11.02;;;;;;;19.19;70.69;101474.84;5010287;28;20335;-60
2022/06/26 08:49:19;;;;;;;20.08;10.60;;;;;;;19.15;69.74;101474.72;5010536;28;20040;-57
2022/06/26 08:51:47;;;;;;;18.98;10.93;;;;;;;19.22;70.79;101481.72;5009478;28;20033;-57
2022/06/26 08:54:13;;;;;;;19.20;11.55;;;;;;;19.18;69.02;101488.03;5025539;28;20030;-61
2022/06/26 08:56:41;;;;;;;19.13;10.02;;;;;;;19.12;69.42;101489.44;5010392;28;20026;-57
2022/06/26 08:59:08;;;;;;;18.52;10.02;;;;;;;19.15;70.88;101482.31;5009862;28;20063;-58
2022/06/26 09:01:35;;;;;;;19.92;10.45;;;;;;;19.14;71.62;101489.09;5010154;28;20103;-59
2022/06/26 09:04:01;;;;;;;19.52;10.50;;;;;;;19.26;72.13;101491.91;5009928;28;20088;-58
2022/06/26 09:06:26;;;;;;;20.08;10.52;;;;;;;19.27;70.94;101490.72;5010010;28;20037;-58
2022/06/26 09:08:52;;;;;;;18.85;10.45;;;;;;;19.29;70.27;101493.19;5009923;28;20033;-58
2022/06/26 09:11:18;;;;;;;19.13;10.70;;;;;;;19.38;71.01;101491.06;5008072;28;20038;-58
2022/06/26 09:13:45;;;;;;;19.08;10.20;;;;;;;19.50;70.56;101493.09;5009872;28;20060;-58
2022/06/26 09:16:11;;;;;;;18.83;11.00;;;;;;;19.52;70.83;101475.88;5009135;28;20378;-58
2022/06/26 09:18:38;;;;;;;19.95;10.73;;;;;;;19.63;70.44;101483.47;5009239;28;20361;-57
2022/06/26 09:21:05;;;;;;;20.20;10.70;;;;;;;19.63;69.22;101485.47;5009261;28;20034;-57
2022/06/26 09:23:32;;;;;;;18.52;10.40;;;;;;;19.53;69.13;101483.13;5009421;28;20030;-58
2022/06/26 09:25:58;;;;;;;18.60;10.75;;;;;;;19.46;69.44;101495.75;5009438;28;20021;-57
2022/06/26 09:28:24;;;;;;;18.98;10.77;;;;;;;19.45;70.50;101485.72;5009563;28;20091;-58
2022/06/26 09:30:50;;;;;;;20.65;10.93;;;;;;;19.56;70.85;101479.59;5009650;28;20496;-59
2022/06/26 09:33:18;;;;;;;17.90;9.93;;;;;;;19.61;70.00;101476.56;4996559;28;20772;-58
2022/06/26 09:35:44;;;;;;;20.13;10.48;;;;;;;19.71;70.10;101467.66;5009973;28;20052;-58
2022/06/26 09:38:09;;;;;;;19.48;10.30;;;;;;;19.69;68.72;101469.19;5009056;28;20520;-58
2022/06/26 09:40:34;;;;;;;18.65;10.30;;;;;;;19.58;69.23;101480.06;5007307;28;20137;-58
2022/06/26 09:43:00;;;;;;;18.02;10.48;;;;;;;19.52;69.72;101501.13;5009196;28;20034;-58
2022/06/26 09:45:25;;;;;;;17.25;9.70;;;;;;;19.43;68.13;101501.25;5009391;28;20145;-56
2022/06/26 09:47:52;;;;;;;19.17;9.77;;;;;;;19.44;68.21;101502.88;5007363;28;20443;-57
2022/06/26 09:50:19;;;;;;;18.42;9.27;;;;;;;19.45;68.80;101496.09;5008724;28;20038;-58
2022/06/26 09:52:45;;;;;;;15.80;8.60;;;;;;;19.51;67.51;101503.09;5007042;28;20239;-58
2022/06/26 09:55:11;;;;;;;17.02;9.00;;;;;;;19.59;66.79;101484.50;5009042;28;20084;-58
2022/06/26 09:57:37;;;;;;;17.02;9.25;;;;;;;19.72;66.27;101490.94;5009173;28;20045;-57
2022/06/26 10:00:04;;;;;;;14.93;8.50;;;;;;;19.68;65.44;101490.81;5009162;28;20034;-59
2022/06/26 10:08:07;;;;;;;16.13;9.32;;;;;;;19.88;66.93;101507.91;5009016;28;20048;-58
2022/06/26 10:10:34;;;;;;;19.48;10.10;;;;;;;19.96;67.01;101504.13;5007228;28;20136;-58
2022/06/26 10:13:03;;;;;;;18.10;9.30;;;;;;;20.07;66.19;101510.09;5008814;28;20096;-58
2022/06/26 10:15:37;;;;;;;18.42;9.73;;;;;;;20.36;66.78;101516.50;5009031;28;20064;-58
2022/06/26 10:18:21;;;;;;;;;;;;;;;20.57;67.63;101517.13;5009343;28;20092;-58
2022/06/26 10:20:47;;;;;;;19.60;10.07;;;;;;;20.53;64.47;101515.41;5008910;28;19975;-57
2022/06/26 10:23:47;;;;;;;15.65;9.20;;;;;;;20.65;65.20;101517.31;5008985;28;20040;-57
2022/06/26 10:26:15;;;;;;;16.73;9.85;;;;;;;20.71;64.56;101519.53;5008903;28;20073;-57
2022/06/26 10:29:04;;;;;;;17.73;9.80;;;;;;;20.79;64.96;101528.19;5008822;28;20045;-58
2022/06/26 10:31:47;;;;;;;16.98;9.80;;;;;;;20.77;64.35;101531.34;5008815;28;20511;-58
2022/06/26 10:34:21;;;;;;;17.33;9.20;;;;;;;20.80;63.10;101527.84;5008924;28;20057;-58
2022/06/26 10:37:02;;;;;;;18.42;9.60;;;;;;;20.68;63.48;101509.00;5008400;28;20053;-58
2022/06/26 10:39:36;;;;;;;15.40;9.05;;;;;;;20.65;63.22;101520.97;5008641;28;20093;-57
2022/06/26 10:44:54;;;;;;;17.08;9.88;;;;;;;20.70;65.02;101525.50;5008589;28;20065;-58
2022/06/26 10:47:20;;;;;;;16.73;9.75;;;;;;;20.81;64.48;101532.28;5008090;28;20042;-57
2022/06/26 10:49:50;;;;;;;17.42;9.77;;;;;;;20.82;62.38;101527.47;5008389;28;20175;-58
2022/06/26 10:52:23;;;;;;;14.90;9.02;;;;;;;20.93;62.49;101528.56;5008203;28;20030;-57
2022/06/26 10:54:50;;;;;;;15.98;9.00;;;;;;;20.98;61.26;101525.47;5008437;28;20108;-58
2022/06/26 10:57:17;;;;;;;16.88;8.95;;;;;;;20.99;60.67;101534.75;5008399;28;20429;-57
2022/06/26 10:59:44;;;;;;;16.35;9.40;;;;;;;21.09;61.42;101528.59;5008420;28;20065;-59
2022/06/26 11:02:11;;;;;;;17.30;9.07;;;;;;;21.28;61.32;101527.84;5008444;28;20044;-57
2022/06/26 11:04:47;;;;;;;17.42;9.07;;;;;;;21.49;61.73;101527.56;5008667;28;20032;-57
2022/06/26 11:07:14;;;;;;;16.85;9.65;;;;;;;21.64;60.73;101533.59;5008271;28;20355;-58
2022/06/26 11:09:40;;;;;;;18.42;9.60;;;;;;;21.72;60.63;101526.13;5008198;28;20026;-57
2022/06/26 11:12:05;;;;;;;18.38;9.73;;;;;;;21.78;59.89;101525.44;5006748;28;20042;-56
2022/06/26 11:14:31;;;;;;;17.48;9.50;;;;;;;21.85;59.99;101527.63;5008341;28;20026;-57
2022/06/26 11:16:56;;;;;;;15.40;8.23;;;;;;;21.84;57.54;101525.19;5008551;28;20128;-57
2022/06/26 11:19:29;;;;;;;17.50;8.20;;;;;;;21.72;57.85;101529.75;5008899;28;20351;-57
2022/06/26 11:22:09;;;;;;;13.60;8.05;;;;;;;21.83;57.84;101520.72;5012232;28;20038;-58